Time;durP1;ratioP1;P1;durP2;ratioP2;P2;SDS_P1;SDS_P2;PMS_P1;PMS_P2;Temp;Humidity;BMP_temperature;BMP_pressure;BME280_temperature;BME280_humidity;BME280_pressure;Samples;Min_cycle;Max_cycle;Signal;HPM_P1;HPM_P2
2022/11/28 00:02:19;;;;;;;18.30;11.00;;;6.40;99.90;;;;;;5008214;28;20145;-43
2022/11/28 00:04:50;;;;;;;14.82;10.00;;;6.40;99.90;;;;;;5003626;28;20049;-42
2022/11/28 00:07:17;;;;;;;15.33;10.17;;;6.40;99.90;;;;;;5002829;28;20047;-46
2022/11/28 00:09:43;;;;;;;18.15;10.80;;;6.40;99.90;;;;;;5000303;28;20341;-42
2022/11/28 00:12:10;;;;;;;13.40;9.55;;;6.40;99.90;;;;;;4994463;28;20078;-43
2022/11/28 00:14:37;;;;;;;15.00;9.57;;;6.40;99.90;;;;;;4996901;28;20130;-42
2022/11/28 00:17:04;;;;;;;14.52;10.55;;;6.50;99.90;;;;;;4983040;28;20128;-37
2022/11/28 00:19:30;;;;;;;14.63;9.63;;;6.40;99.90;;;;;;5014262;28;20078;-43
2022/11/28 00:21:59;;;;;;;13.95;9.38;;;6.50;99.90;;;;;;5002173;28;20129;-42
2022/11/28 00:24:26;;;;;;;18.33;10.13;;;6.50;99.90;;;;;;5005602;28;20104;-43
2022/11/28 00:26:52;;;;;;;14.57;10.35;;;6.50;99.90;;;;;;4995210;28;20053;-40
2022/11/28 00:29:19;;;;;;;14.45;9.00;;;6.50;99.90;;;;;;5017713;28;20054;-41
2022/11/28 00:31:46;;;;;;;18.45;8.90;;;6.50;99.90;;;;;;4998569;28;20495;-41
2022/11/28 00:34:13;;;;;;;14.38;9.65;;;6.50;99.90;;;;;;5004537;28;20562;-40
2022/11/28 00:36:40;;;;;;;15.88;9.70;;;6.50;99.90;;;;;;5001721;28;20077;-41
2022/11/28 00:39:08;;;;;;;16.67;9.95;;;6.50;99.90;;;;;;4995859;28;20125;-41
2022/11/28 00:41:35;;;;;;;15.73;8.88;;;6.60;99.90;;;;;;5006161;28;20109;-40
2022/11/28 00:44:02;;;;;;;14.05;9.27;;;6.60;99.90;;;;;;4993207;28;20046;-41
2022/11/28 00:46:29;;;;;;;15.88;9.32;;;6.50;99.90;;;;;;5007062;28;20089;-38
2022/11/28 00:48:57;;;;;;;15.60;9.45;;;6.50;99.90;;;;;;4982139;28;20062;-40
2022/11/28 00:51:24;;;;;;;14.50;9.38;;;6.60;99.90;;;;;;4987545;28;20078;-40
2022/11/28 00:53:52;;;;;;;15.02;9.38;;;6.60;99.90;;;;;;4994783;28;20054;-40
2022/11/28 00:56:21;;;;;;;13.18;8.90;;;6.50;99.90;;;;;;4994731;28;20058;-40
2022/11/28 00:58:48;;;;;;;16.55;9.68;;;6.60;99.90;;;;;;4988796;28;20136;-38
2022/11/28 01:01:16;;;;;;;15.60;9.27;;;6.70;99.90;;;;;;4995935;28;20486;-40
2022/11/28 01:03:43;;;;;;;11.50;8.70;;;6.60;99.90;;;;;;5006665;28;20465;-40
2022/11/28 01:06:10;;;;;;;13.75;8.98;;;6.60;99.90;;;;;;4986271;28;20073;-39
2022/11/28 01:08:37;;;;;;;12.63;8.63;;;6.60;99.90;;;;;;5001729;28;20081;-40
2022/11/28 01:11:05;;;;;;;15.98;9.13;;;6.60;99.90;;;;;;4999526;28;20475;-39
2022/11/28 01:13:33;;;;;;;15.75;8.82;;;6.70;99.90;;;;;;4981147;28;20494;-40
2022/11/28 01:16:00;;;;;;;18.88;9.23;;;6.70;99.90;;;;;;4982154;28;20062;-40
2022/11/28 01:18:27;;;;;;;15.07;9.00;;;6.70;99.90;;;;;;4995064;28;20048;-40
2022/11/28 01:20:53;;;;;;;14.63;8.57;;;6.80;99.90;;;;;;5005411;28;20058;-40
2022/11/28 01:23:20;;;;;;;11.70;8.82;;;6.80;99.90;;;;;;4997061;28;20124;-40
2022/11/28 01:25:47;;;;;;;17.65;8.80;;;6.80;99.90;;;;;;5004394;28;20062;-41
2022/11/28 01:28:14;;;;;;;13.30;8.65;;;6.80;99.90;;;;;;4994111;28;20139;-39
2022/11/28 01:30:42;;;;;;;12.35;8.80;;;6.90;99.90;;;;;;5008063;28;20136;-40
2022/11/28 01:33:09;;;;;;;12.60;8.63;;;6.80;99.90;;;;;;5011632;28;20083;-40
2022/11/28 01:35:35;;;;;;;14.00;9.00;;;6.90;99.90;;;;;;4978613;28;20050;-40
2022/11/28 01:38:02;;;;;;;14.43;8.93;;;6.90;99.90;;;;;;4993718;28;20054;-39
2022/11/28 01:40:29;;;;;;;13.15;8.80;;;6.80;99.90;;;;;;5001277;28;20113;-40
2022/11/28 01:42:56;;;;;;;12.90;9.48;;;6.80;99.90;;;;;;4973603;28;20503;-41
2022/11/28 01:45:23;;;;;;;16.10;9.70;;;6.80;99.90;;;;;;4983242;28;20510;-41
2022/11/28 01:47:52;;;;;;;14.98;9.15;;;6.80;99.90;;;;;;4979930;28;20089;-41
2022/11/28 01:50:19;;;;;;;15.98;9.45;;;6.90;99.90;;;;;;4996410;28;20565;-41
2022/11/28 01:52:47;;;;;;;15.07;9.38;;;6.80;99.90;;;;;;5005784;28;20092;-41
2022/11/28 01:55:15;;;;;;;17.60;10.43;;;6.80;99.90;;;;;;4996023;28;20104;-41
2022/11/28 01:57:42;;;;;;;17.63;9.45;;;6.80;99.90;;;;;;5005508;28;20132;-41
2022/11/28 02:00:10;;;;;;;12.60;9.18;;;6.90;99.90;;;;;;4995438;28;20104;-38
2022/11/28 02:02:38;;;;;;;16.95;10.68;;;6.80;99.90;;;;;;5000480;28;20100;-40
2022/11/28 02:05:07;;;;;;;20.52;10.07;;;6.80;99.90;;;;;;4998739;28;20137;-41
2022/11/28 02:07:33;;;;;;;16.17;9.90;;;6.80;99.90;;;;;;5011017;28;20242;-40
2022/11/28 02:10:01;;;;;;;13.70;9.80;;;6.80;99.90;;;;;;5003812;28;20086;-41
2022/11/28 02:12:42;;;;;;;16.55;9.43;;;6.80;99.90;;;;;;5005889;28;20101;-41
2022/11/28 02:15:21;;;;;;;14.43;10.10;;;6.90;99.90;;;;;;4993890;28;20050;-40
2022/11/28 02:17:56;;;;;;;17.17;9.48;;;6.90;99.90;;;;;;5008779;28;20120;-40
2022/11/28 02:21:05;;;;;;;14.75;9.40;;;6.90;99.90;;;;;;4990858;28;20050;-41
2022/11/28 02:23:41;;;;;;;16.85;10.27;;;6.90;99.90;;;;;;4973371;28;20487;-40
2022/11/28 02:26:20;;;;;;;15.52;9.88;;;6.90;99.90;;;;;;4971121;28;20047;-40
2022/11/28 02:29:02;;;;;;;16.98;9.43;;;6.90;99.90;;;;;;4996306;28;20109;-41
2022/11/28 02:31:38;;;;;;;14.90;9.90;;;6.90;99.90;;;;;;4991123;28;20145;-41
2022/11/28 02:34:08;;;;;;;19.95;9.70;;;7.00;99.90;;;;;;4992685;28;20078;-40
2022/11/28 02:36:36;;;;;;;19.05;9.98;;;7.00;99.90;;;;;;5008432;28;20053;-41
2022/11/28 02:39:05;;;;;;;17.70;10.40;;;7.00;99.90;;;;;;4976033;28;20054;-40
2022/11/28 02:41:34;;;;;;;21.23;10.55;;;7.00;99.90;;;;;;4995984;28;20128;-41
2022/11/28 02:44:06;;;;;;;16.52;10.52;;;7.10;99.90;;;;;;4980207;28;20466;-40
2022/11/28 02:46:34;;;;;;;;;;;7.00;99.90;;;;;;4991438;28;20082;-41
2022/11/28 02:49:03;;;;;;;18.17;10.98;;;7.00;99.90;;;;;;5003371;28;20052;-41
2022/11/28 02:51:33;;;;;;;14.80;10.60;;;7.00;99.90;;;;;;5001395;28;20058;-41
2022/11/28 02:54:00;;;;;;;16.85;10.45;;;7.00;99.90;;;;;;4996298;28;20082;-41
2022/11/28 02:56:27;;;;;;;16.15;10.65;;;7.00;99.90;;;;;;4974282;28;20127;-41
2022/11/28 02:58:54;;;;;;;18.65;11.20;;;7.10;99.90;;;;;;4998454;28;20082;-39
2022/11/28 03:01:23;;;;;;;18.67;11.45;;;7.00;99.90;;;;;;4978915;28;20455;-40
2022/11/28 03:03:58;;;;;;;18.42;11.75;;;7.10;99.90;;;;;;4979169;28;20058;-41
2022/11/28 03:06:33;;;;;;;18.70;12.23;;;7.10;99.90;;;;;;4975700;28;20383;-40
2022/11/28 03:09:11;;;;;;;21.80;13.00;;;7.10;99.90;;;;;;5002458;28;20050;-41
2022/11/28 03:11:46;;;;;;;20.80;13.25;;;7.10;99.90;;;;;;4989201;28;20085;-41
2022/11/28 03:14:16;;;;;;;22.30;12.48;;;7.10;99.90;;;;;;4974529;28;20085;-40
2022/11/28 03:16:46;;;;;;;20.52;13.98;;;7.10;99.90;;;;;;4998082;28;20403;-41
2022/11/28 03:19:16;;;;;;;21.27;14.20;;;7.10;99.90;;;;;;4984943;28;20086;-39
2022/11/28 03:21:47;;;;;;;23.67;15.25;;;7.10;99.90;;;;;;5008627;28;20462;-40
2022/11/28 03:24:16;;;;;;;26.20;15.65;;;7.10;99.90;;;;;;5007902;28;20512;-40
2022/11/28 03:26:47;;;;;;;29.25;15.90;;;7.10;99.90;;;;;;5002931;28;20104;-39
2022/11/28 03:29:16;;;;;;;29.25;16.52;;;7.20;99.90;;;;;;4992630;28;20052;-41
2022/11/28 03:31:45;;;;;;;24.25;15.43;;;7.20;99.90;;;;;;5012633;28;20577;-42
2022/11/28 03:34:14;;;;;;;27.35;16.20;;;7.20;99.90;;;;;;4993029;28;20062;-42
2022/11/28 03:36:42;;;;;;;30.17;16.08;;;7.20;99.90;;;;;;4991061;28;20415;-44
2022/11/28 03:39:12;;;;;;;26.38;16.38;;;7.20;99.90;;;;;;4983783;28;20050;-41
2022/11/28 03:41:41;;;;;;;24.77;15.80;;;7.20;99.90;;;;;;4991444;28;20049;-42
2022/11/28 03:44:09;;;;;;;26.77;16.35;;;7.20;99.90;;;;;;4993079;28;20112;-43
2022/11/28 03:46:40;;;;;;;29.98;16.83;;;7.20;99.90;;;;;;4995811;28;20128;-42
2022/11/28 03:49:08;;;;;;;26.67;16.05;;;7.20;99.90;;;;;;5006772;28;20486;-44
2022/11/28 03:51:36;;;;;;;34.33;17.52;;;7.20;99.90;;;;;;4995991;28;20108;-43
2022/11/28 03:54:04;;;;;;;25.25;16.85;;;7.30;99.90;;;;;;5010756;28;20497;-43
2022/11/28 03:56:36;;;;;;;28.20;17.30;;;7.30;99.90;;;;;;5004635;28;20138;-43
2022/11/28 03:59:05;;;;;;;29.52;18.05;;;7.30;99.90;;;;;;5001264;28;20062;-43
2022/11/28 04:01:34;;;;;;;26.70;18.20;;;7.30;99.90;;;;;;4992126;28;20153;-45
2022/11/28 04:04:08;;;;;;;32.22;18.02;;;7.30;99.90;;;;;;4955681;28;20488;-43
2022/11/28 04:06:37;;;;;;;33.10;18.40;;;7.30;99.90;;;;;;4978662;28;20142;-45
2022/11/28 04:09:07;;;;;;;27.73;18.67;;;7.30;99.90;;;;;;4978105;28;20110;-44
2022/11/28 04:11:38;;;;;;;32.20;19.77;;;7.40;99.90;;;;;;4958463;28;20065;-44
2022/11/28 04:14:07;;;;;;;;;;;7.30;99.90;;;;;;4976510;28;20053;-42
2022/11/28 04:16:34;;;;;;;33.35;19.20;;;7.30;99.90;;;;;;4975970;28;19969;-46
2022/11/28 04:19:04;;;;;;;28.92;19.33;;;7.30;99.90;;;;;;4962561;28;20142;-44
2022/11/28 04:21:32;;;;;;;30.60;19.48;;;7.40;99.90;;;;;;4983214;28;20076;-43
2022/11/28 04:24:01;;;;;;;38.25;20.95;;;7.40;99.90;;;;;;4962168;28;20137;-44
2022/11/28 04:26:30;;;;;;;32.22;21.13;;;7.40;99.90;;;;;;4990621;28;20093;-45
2022/11/28 04:28:58;;;;;;;34.40;21.35;;;7.40;99.90;;;;;;4981955;28;20129;-45
2022/11/28 04:31:25;;;;;;;34.33;20.65;;;7.40;99.90;;;;;;4986082;28;20455;-44
2022/11/28 04:33:54;;;;;;;36.25;21.10;;;7.50;99.90;;;;;;4975192;28;20154;-44
2022/11/28 04:36:21;;;;;;;33.17;19.88;;;7.50;99.90;;;;;;4973270;28;20093;-45
2022/11/28 04:38:55;;;;;;;28.52;19.88;;;7.50;99.90;;;;;;4955580;28;20101;-45
2022/11/28 04:41:23;;;;;;;29.83;21.08;;;7.50;99.90;;;;;;4993530;28;20055;-44
2022/11/28 04:43:53;;;;;;;26.77;19.63;;;7.50;99.90;;;;;;4957605;28;20054;-44
2022/11/28 04:46:23;;;;;;;26.70;19.65;;;7.50;99.90;;;;;;4965922;28;20500;-38
2022/11/28 04:48:50;;;;;;;31.10;20.73;;;7.50;99.90;;;;;;4971180;28;20243;-45
2022/11/28 04:51:19;;;;;;;27.90;19.80;;;7.50;99.90;;;;;;4976968;28;20099;-45
2022/11/28 04:53:48;;;;;;;29.70;20.95;;;7.50;99.90;;;;;;4983187;28;20051;-42
2022/11/28 04:56:18;;;;;;;31.77;21.63;;;7.60;99.90;;;;;;5006347;28;20222;-44
2022/11/28 04:58:46;;;;;;;38.47;21.85;;;7.60;99.90;;;;;;4963189;28;20079;-41
2022/11/28 05:01:15;;;;;;;31.55;22.45;;;7.50;99.90;;;;;;4968272;28;20134;-44
2022/11/28 05:03:44;;;;;;;36.75;23.38;;;7.60;99.90;;;;;;4973017;28;20062;-42
2022/11/28 05:06:10;;;;;;;33.03;21.48;;;7.60;99.90;;;;;;4991405;28;20153;-43
2022/11/28 05:08:37;;;;;;;34.08;22.05;;;7.60;99.90;;;;;;4995047;28;20057;-44
2022/11/28 05:11:04;;;;;;;35.72;23.17;;;7.60;99.90;;;;;;4997862;28;20114;-42
2022/11/28 05:13:31;;;;;;;33.67;21.80;;;7.60;99.90;;;;;;5003186;28;20104;-39
2022/11/28 05:16:00;;;;;;;32.70;21.35;;;7.60;99.90;;;;;;4999694;28;20096;-43
2022/11/28 05:18:27;;;;;;;29.27;20.20;;;7.60;99.90;;;;;;4980438;28;20042;-43
2022/11/28 05:20:55;;;;;;;29.27;20.33;;;7.60;99.90;;;;;;4999323;28;20100;-42
2022/11/28 05:23:21;;;;;;;25.95;19.77;;;7.60;99.90;;;;;;5009733;28;20050;-42
2022/11/28 05:25:48;;;;;;;28.98;19.23;;;7.60;99.90;;;;;;4987849;28;20108;-42
2022/11/28 05:28:15;;;;;;;29.08;18.52;;;7.60;99.90;;;;;;4976019;28;20446;-42
2022/11/28 05:30:42;;;;;;;31.92;18.08;;;7.60;99.90;;;;;;5003011;28;20086;-41
2022/11/28 05:33:09;;;;;;;30.45;17.75;;;7.70;99.90;;;;;;4994223;28;20051;-41
2022/11/28 05:35:38;;;;;;;27.92;18.48;;;7.70;99.90;;;;;;4996578;28;20592;-41
2022/11/28 05:38:06;;;;;;;29.88;18.33;;;7.70;99.90;;;;;;4985871;28;20138;-41
2022/11/28 05:40:33;;;;;;;26.95;17.65;;;7.70;99.90;;;;;;4966204;28;20116;-39
2022/11/28 05:43:01;;;;;;;27.35;17.83;;;7.70;99.90;;;;;;4983660;28;20409;-40
2022/11/28 05:45:28;;;;;;;25.60;18.17;;;7.70;99.90;;;;;;4982838;28;20054;-41
2022/11/28 05:47:54;;;;;;;26.42;18.02;;;7.70;99.90;;;;;;4993887;28;20128;-40
2022/11/28 05:50:21;;;;;;;25.70;18.38;;;7.70;99.90;;;;;;4976728;28;20139;-39
2022/11/28 05:52:48;;;;;;;27.60;18.30;;;7.70;99.90;;;;;;4993647;28;20133;-40
2022/11/28 05:55:16;;;;;;;25.38;18.63;;;7.80;99.90;;;;;;4984595;28;20058;-41
2022/11/28 05:57:43;;;;;;;27.63;17.10;;;7.80;99.90;;;;;;4978825;28;20058;-40
2022/11/28 06:00:11;;;;;;;23.20;17.90;;;7.70;99.90;;;;;;4990935;28;20078;-40
2022/11/28 06:02:38;;;;;;;23.00;17.65;;;7.80;99.90;;;;;;4990261;28;20046;-39
2022/11/28 06:05:05;;;;;;;26.45;18.55;;;7.80;99.90;;;;;;4993472;28;20050;-41
2022/11/28 06:07:32;;;;;;;27.13;18.95;;;7.80;99.90;;;;;;4975112;28;20146;-41
2022/11/28 06:09:59;;;;;;;27.45;19.13;;;7.80;99.90;;;;;;5007220;28;20470;-42
2022/11/28 06:12:27;;;;;;;25.25;19.10;;;7.80;99.90;;;;;;4995783;28;20091;-42
2022/11/28 06:14:54;;;;;;;30.85;18.85;;;7.80;99.90;;;;;;4975895;28;20054;-41
2022/11/28 06:17:21;;;;;;;25.80;18.75;;;7.80;99.90;;;;;;4992689;28;20062;-42
2022/11/28 06:19:47;;;;;;;25.95;18.77;;;7.80;99.90;;;;;;4996077;28;20139;-39
2022/11/28 06:22:14;;;;;;;30.67;20.00;;;7.80;99.90;;;;;;4981012;28;20085;-41
2022/11/28 06:24:41;;;;;;;27.92;18.90;;;7.80;99.90;;;;;;4977000;28;20429;-40
2022/11/28 06:27:08;;;;;;;29.25;19.80;;;7.80;99.90;;;;;;4992438;28;20100;-40
2022/11/28 06:29:36;;;;;;;28.63;19.90;;;7.80;99.90;;;;;;4985506;28;20046;-39
2022/11/28 06:32:03;;;;;;;28.23;20.40;;;7.80;99.90;;;;;;4976523;28;20105;-40
2022/11/28 06:34:31;;;;;;;29.48;20.33;;;7.80;99.90;;;;;;4993180;28;20051;-40
2022/11/28 06:36:58;;;;;;;32.80;20.67;;;7.80;99.90;;;;;;4980133;28;20046;-40
2022/11/28 06:39:24;;;;;;;29.83;20.30;;;7.80;99.90;;;;;;4977225;28;20089;-38
2022/11/28 06:41:51;;;;;;;28.65;21.27;;;7.80;99.90;;;;;;4992667;28;20137;-39
2022/11/28 06:44:18;;;;;;;27.65;20.13;;;7.80;99.90;;;;;;4993106;28;20058;-40
2022/11/28 06:46:46;;;;;;;26.85;19.13;;;7.80;99.90;;;;;;4991855;28;20498;-40
2022/11/28 06:49:13;;;;;;;27.23;19.55;;;7.80;99.90;;;;;;4992152;28;20062;-40
2022/11/28 06:51:40;;;;;;;29.70;20.75;;;7.80;99.90;;;;;;4986674;28;20562;-39
2022/11/28 06:54:07;;;;;;;28.60;20.23;;;7.80;99.90;;;;;;5002220;28;20062;-40
2022/11/28 06:56:33;;;;;;;28.55;20.02;;;7.80;99.90;;;;;;4976484;28;20081;-40
2022/11/28 06:59:00;;;;;;;33.25;20.33;;;7.90;99.90;;;;;;4972395;28;20137;-40
2022/11/28 07:01:29;;;;;;;28.35;18.10;;;7.80;99.90;;;;;;4990754;28;20144;-40
2022/11/28 07:03:57;;;;;;;27.63;18.40;;;7.80;99.90;;;;;;4984130;28;20043;-39
2022/11/28 07:06:24;;;;;;;27.38;17.50;;;7.90;99.90;;;;;;4991218;28;20144;-39
2022/11/28 07:08:52;;;;;;;24.63;17.80;;;7.80;99.90;;;;;;4984542;28;20050;-40
2022/11/28 07:11:20;;;;;;;24.75;17.65;;;7.90;99.90;;;;;;4996888;28;20387;-40
2022/11/28 07:13:47;;;;;;;24.98;17.38;;;7.90;99.90;;;;;;4972697;28;20145;-40
2022/11/28 07:16:15;;;;;;;23.05;16.60;;;7.80;99.90;;;;;;4971709;28;20066;-39
2022/11/28 07:18:42;;;;;;;24.55;15.40;;;7.90;99.90;;;;;;4992359;28;20050;-40
2022/11/28 07:21:10;;;;;;;27.42;16.58;;;7.90;99.90;;;;;;4994598;28;20133;-39
2022/11/28 07:23:37;;;;;;;22.65;17.25;;;7.90;99.90;;;;;;4980714;28;20137;-40
2022/11/28 07:26:04;;;;;;;22.90;17.00;;;7.90;99.90;;;;;;4995235;28;20078;-39
2022/11/28 07:28:31;;;;;;;22.02;16.13;;;7.90;99.90;;;;;;4994425;28;20078;-39
2022/11/28 07:31:00;;;;;;;23.08;15.35;;;7.90;99.90;;;;;;4991606;28;20125;-39
2022/11/28 07:33:27;;;;;;;24.05;15.93;;;7.90;99.90;;;;;;4995384;28;20053;-39
2022/11/28 07:35:53;;;;;;;22.42;15.30;;;7.90;99.90;;;;;;4995573;28;20081;-40
2022/11/28 07:38:22;;;;;;;23.70;15.15;;;7.90;99.90;;;;;;4977330;28;20546;-39
2022/11/28 07:40:49;;;;;;;19.50;14.80;;;7.90;99.90;;;;;;4994065;28;20125;-39
2022/11/28 07:43:16;;;;;;;24.85;15.63;;;7.90;99.90;;;;;;4974718;28;20775;-40
2022/11/28 07:45:42;;;;;;;20.15;13.82;;;7.90;99.90;;;;;;4977554;28;20085;-39
2022/11/28 07:48:09;;;;;;;19.85;15.10;;;7.90;99.90;;;;;;4993989;28;20133;-40
2022/11/28 07:50:38;;;;;;;20.00;14.20;;;7.90;99.90;;;;;;5007454;28;20058;-38
2022/11/28 07:53:04;;;;;;;21.00;14.85;;;7.90;99.90;;;;;;5014662;28;20050;-41
2022/11/28 07:55:34;;;;;;;19.40;14.63;;;7.90;99.90;;;;;;5008629;28;20086;-42
2022/11/28 07:58:01;;;;;;;20.63;14.15;;;7.90;99.90;;;;;;4995596;28;20054;-42
2022/11/28 08:00:28;;;;;;;23.60;13.98;;;7.90;99.90;;;;;;4976806;28;20092;-43
2022/11/28 08:02:54;;;;;;;25.58;14.98;;;7.90;99.90;;;;;;4996398;28;20085;-41
2022/11/28 08:05:21;;;;;;;20.75;14.52;;;7.90;99.90;;;;;;5003395;28;20050;-43
2022/11/28 08:07:49;;;;;;;17.58;12.73;;;7.90;99.90;;;;;;4994950;28;20510;-44
2022/11/28 08:10:16;;;;;;;18.45;12.57;;;7.90;99.90;;;;;;4997448;28;20081;-45
2022/11/28 08:12:44;;;;;;;17.40;12.75;;;7.90;99.90;;;;;;5014316;28;20089;-45
2022/11/28 08:15:11;;;;;;;17.70;12.52;;;7.90;99.90;;;;;;5010611;28;20089;-43
2022/11/28 08:17:38;;;;;;;16.58;12.23;;;7.90;99.90;;;;;;5014427;28;20057;-40
2022/11/28 08:20:06;;;;;;;18.15;12.23;;;7.90;99.90;;;;;;4989461;28;20073;-43
2022/11/28 08:22:33;;;;;;;15.38;11.45;;;7.90;99.90;;;;;;4977476;28;20049;-43
2022/11/28 08:25:00;;;;;;;16.55;11.73;;;7.90;99.90;;;;;;4975152;28;20051;-45
2022/11/28 08:27:26;;;;;;;16.95;11.52;;;8.00;99.90;;;;;;4994492;28;20050;-44
2022/11/28 08:29:55;;;;;;;16.95;11.25;;;7.90;99.90;;;;;;4993840;28;20081;-43
2022/11/28 08:32:21;;;;;;;15.57;12.07;;;8.00;99.90;;;;;;4975919;28;20058;-45
2022/11/28 08:34:48;;;;;;;15.23;11.73;;;8.00;99.90;;;;;;4994482;28;20081;-45
2022/11/28 08:37:15;;;;;;;16.48;12.10;;;7.90;99.90;;;;;;4987088;28;20081;-44
2022/11/28 08:39:42;;;;;;;15.75;12.27;;;8.00;99.90;;;;;;5013771;28;20050;-44
2022/11/28 08:42:08;;;;;;;17.13;12.02;;;8.00;99.90;;;;;;5013461;28;20502;-43
2022/11/28 08:44:35;;;;;;;14.95;11.52;;;8.00;99.90;;;;;;5004725;28;20089;-42
2022/11/28 08:47:03;;;;;;;16.85;12.32;;;8.00;99.90;;;;;;5002253;28;20061;-43
2022/11/28 08:49:30;;;;;;;17.42;12.48;;;8.00;99.90;;;;;;4976283;28;20058;-41
2022/11/28 08:51:57;;;;;;;16.35;11.88;;;8.00;99.90;;;;;;4994191;28;20097;-44
2022/11/28 08:54:24;;;;;;;16.63;12.68;;;8.00;99.90;;;;;;4993692;28;20058;-41
2022/11/28 08:56:51;;;;;;;16.45;12.30;;;8.00;99.90;;;;;;4991983;28;20150;-41
2022/11/28 08:59:17;;;;;;;15.00;11.13;;;8.00;99.90;;;;;;5006787;28;20132;-43
2022/11/28 09:01:44;;;;;;;15.35;11.23;;;8.00;99.90;;;;;;4976600;28;20078;-42
2022/11/28 09:04:12;;;;;;;14.73;10.93;;;8.00;99.90;;;;;;4990277;28;20128;-43
2022/11/28 09:06:39;;;;;;;15.32;10.85;;;8.00;99.90;;;;;;4993962;28;20051;-39
2022/11/28 09:09:07;;;;;;;14.23;10.43;;;8.00;99.90;;;;;;4993217;28;20080;-42
2022/11/28 09:11:34;;;;;;;12.75;9.75;;;8.00;99.90;;;;;;4993573;28;20042;-43
2022/11/28 09:14:01;;;;;;;13.77;10.95;;;8.00;99.90;;;;;;4993499;28;20047;-44
2022/11/28 09:16:28;;;;;;;10.52;9.05;;;8.00;99.90;;;;;;4992270;28;20506;-42
2022/11/28 09:18:56;;;;;;;11.98;9.18;;;8.00;99.90;;;;;;4993302;28;20138;-42
2022/11/28 09:21:24;;;;;;;12.90;10.02;;;8.00;99.90;;;;;;4991867;28;20054;-43
2022/11/28 09:23:52;;;;;;;14.60;10.10;;;8.10;99.90;;;;;;4992121;28;20140;-45
2022/11/28 09:26:20;;;;;;;13.93;9.40;;;8.00;99.90;;;;;;4993382;28;20093;-45
2022/11/28 09:28:47;;;;;;;15.32;11.35;;;8.10;99.90;;;;;;4993177;28;20085;-44
2022/11/28 09:31:14;;;;;;;14.10;10.60;;;8.10;99.90;;;;;;4992344;28;20081;-43
2022/11/28 09:33:41;;;;;;;19.27;12.00;;;8.10;99.90;;;;;;4975973;28;20046;-43
2022/11/28 09:36:09;;;;;;;14.55;11.13;;;8.10;99.90;;;;;;5008049;28;20089;-46
2022/11/28 09:38:37;;;;;;;15.27;10.07;;;8.10;99.90;;;;;;5012617;28;20078;-44
2022/11/28 09:41:04;;;;;;;12.15;9.98;;;8.20;99.90;;;;;;4976512;28;20050;-43
2022/11/28 09:43:32;;;;;;;12.40;10.10;;;8.20;99.90;;;;;;4991271;28;20141;-40
2022/11/28 09:46:00;;;;;;;12.60;9.95;;;8.20;99.90;;;;;;4993201;28;20089;-43
2022/11/28 09:48:28;;;;;;;11.60;9.95;;;8.20;99.90;;;;;;4975547;28;20054;-43
2022/11/28 09:50:57;;;;;;;14.18;10.85;;;8.20;99.90;;;;;;4992669;28;20477;-45
2022/11/28 09:53:26;;;;;;;15.02;10.57;;;8.20;99.90;;;;;;4975679;28;20502;-44
2022/11/28 09:55:56;;;;;;;14.55;10.27;;;8.20;99.90;;;;;;4993064;28;20061;-43
2022/11/28 09:58:26;;;;;;;12.85;10.25;;;8.20;99.90;;;;;;4975494;28;20145;-44
2022/11/28 10:00:56;;;;;;;13.60;10.25;;;8.30;99.90;;;;;;4995998;28;20505;-44
2022/11/28 10:03:39;;;;;;;19.70;11.45;;;8.30;99.90;;;;;;5000197;28;20106;-44
2022/11/28 10:06:12;;;;;;;12.70;10.20;;;8.30;99.90;;;;;;4990108;28;20521;-42
2022/11/28 10:08:47;;;;;;;14.50;11.02;;;8.30;99.90;;;;;;4992705;28;20116;-44
2022/11/28 10:11:23;;;;;;;14.40;11.20;;;8.30;99.90;;;;;;5001514;28;20054;-42
2022/11/28 10:13:53;;;;;;;15.07;10.75;;;8.30;99.90;;;;;;4991982;28;20140;-42
2022/11/28 10:16:22;;;;;;;14.07;11.30;;;8.30;99.90;;;;;;5012083;28;20050;-43
2022/11/28 10:18:50;;;;;;;13.10;10.55;;;8.40;99.90;;;;;;5012262;28;20500;-44
2022/11/28 10:21:23;;;;;;;13.30;10.90;;;8.40;99.90;;;;;;4998120;28;20572;-42
2022/11/28 10:23:52;;;;;;;13.18;10.00;;;8.40;99.90;;;;;;4990688;28;20109;-45
2022/11/28 10:26:24;;;;;;;15.43;10.50;;;8.40;99.90;;;;;;4992372;28;20073;-46
2022/11/28 10:28:52;;;;;;;14.18;9.68;;;8.50;99.90;;;;;;4974634;28;20116;-46
2022/11/28 10:31:21;;;;;;;13.18;10.13;;;8.50;99.90;;;;;;4991511;28;20054;-44
2022/11/28 10:33:49;;;;;;;15.77;10.15;;;8.50;99.90;;;;;;4992252;28;20050;-45
2022/11/28 10:36:20;;;;;;;11.98;10.02;;;8.50;99.90;;;;;;4973445;28;20822;-45
2022/11/28 10:38:47;;;;;;;11.40;9.38;;;8.50;99.90;;;;;;4992755;28;20472;-43
2022/11/28 10:41:16;;;;;;;11.35;9.73;;;8.50;99.90;;;;;;4971938;28;20058;-46
2022/11/28 10:43:47;;;;;;;12.65;9.75;;;8.60;99.90;;;;;;4975273;28;20054;-44
2022/11/28 10:46:33;;;;;;;12.30;9.67;;;8.60;99.90;;;;;;4975706;28;20082;-43
2022/11/28 10:49:03;;;;;;;14.85;10.65;;;8.60;99.90;;;;;;4992543;28;20125;-43
2022/11/28 10:51:34;;;;;;;12.98;9.82;;;8.70;99.90;;;;;;4991308;28;20105;-43
2022/11/28 10:54:10;;;;;;;17.30;9.83;;;8.70;99.90;;;;;;4993259;28;20050;-44
2022/11/28 10:56:39;;;;;;;12.20;9.65;;;8.70;99.90;;;;;;4993813;28;20337;-42
2022/11/28 10:59:12;;;;;;;15.07;8.75;;;8.70;99.90;;;;;;5007437;28;20085;-43
2022/11/28 11:01:39;;;;;;;15.40;11.93;;;8.70;99.90;;;;;;4991212;28;21213;-43
2022/11/28 11:04:06;;;;;;;15.40;11.95;;;8.80;99.90;;;;;;4993484;28;20046;-41
2022/11/28 11:06:33;;;;;;;16.35;12.60;;;8.80;99.90;;;;;;4981141;28;20089;-47
2022/11/28 11:09:00;;;;;;;13.07;10.02;;;8.80;99.90;;;;;;4995181;28;20109;-42
2022/11/28 11:11:27;;;;;;;13.48;10.52;;;8.80;99.90;;;;;;4977310;28;20545;-39
2022/11/28 11:13:59;;;;;;;17.15;11.75;;;8.80;99.90;;;;;;4994939;28;20047;-44
2022/11/28 11:16:42;;;;;;;13.43;10.80;;;8.80;99.90;;;;;;4998685;28;20132;-45
2022/11/28 11:19:09;;;;;;;13.07;10.63;;;8.80;99.90;;;;;;5013378;28;20085;-44
2022/11/28 11:21:36;;;;;;;15.93;11.02;;;8.80;99.90;;;;;;5015182;28;20489;-44
2022/11/28 11:24:15;;;;;;;12.40;9.65;;;8.80;99.90;;;;;;4997583;28;20077;-43
2022/11/28 11:26:43;;;;;;;14.07;10.65;;;8.90;99.90;;;;;;5013936;28;20093;-44
2022/11/28 11:29:21;;;;;;;12.65;10.02;;;8.90;99.90;;;;;;5006007;28;20050;-44
2022/11/28 11:31:51;;;;;;;12.85;10.75;;;8.90;99.90;;;;;;4995873;28;20058;-43
2022/11/28 11:34:19;;;;;;;13.68;10.20;;;8.90;99.90;;;;;;4978451;28;20069;-43
2022/11/28 11:36:46;;;;;;;13.00;10.52;;;8.90;99.90;;;;;;4994838;28;20092;-43
2022/11/28 11:39:20;;;;;;;13.15;10.38;;;8.90;99.90;;;;;;4978100;28;20130;-43
2022/11/28 11:41:48;;;;;;;15.38;10.40;;;8.90;99.90;;;;;;4978189;28;20055;-43
2022/11/28 11:44:29;;;;;;;15.65;11.48;;;8.90;99.90;;;;;;4995171;28;20103;-46
2022/11/28 11:46:59;;;;;;;11.75;10.00;;;9.00;99.90;;;;;;4977143;28;20050;-44
2022/11/28 11:49:30;;;;;;;17.50;11.15;;;8.90;99.90;;;;;;4995198;28;20512;-43
2022/11/28 11:51:57;;;;;;;15.00;10.32;;;8.90;99.90;;;;;;5010492;28;20050;-44
2022/11/28 11:54:24;;;;;;;11.50;9.13;;;8.90;99.90;;;;;;4995115;28;20448;-45
2022/11/28 11:56:51;;;;;;;9.98;8.90;;;9.00;99.90;;;;;;4998931;28;20108;-46
2022/11/28 11:59:19;;;;;;;12.02;10.07;;;9.00;99.90;;;;;;4997339;28;20513;-43
2022/11/28 12:01:48;;;;;;;16.60;10.77;;;9.00;99.90;;;;;;5012698;28;20097;-44
2022/11/28 12:04:18;;;;;;;11.32;9.02;;;9.00;99.90;;;;;;4992265;28;20564;-42
2022/11/28 12:06:50;;;;;;;11.88;9.40;;;9.00;99.90;;;;;;5009534;28;20093;-42
2022/11/28 12:09:20;;;;;;;11.52;9.02;;;9.00;99.90;;;;;;4994849;28;20154;-44
2022/11/28 12:11:49;;;;;;;12.00;9.27;;;9.00;99.90;;;;;;4995426;28;20054;-43
2022/11/28 12:14:27;;;;;;;12.02;9.75;;;9.00;99.90;;;;;;4995606;28;20483;-44
2022/11/28 12:17:01;;;;;;;13.23;9.52;;;9.00;99.90;;;;;;4995403;28;20089;-45
2022/11/28 12:19:31;;;;;;;12.55;8.93;;;9.00;99.90;;;;;;4995409;28;20101;-44
2022/11/28 12:22:04;;;;;;;12.27;9.32;;;9.00;99.90;;;;;;4977799;28;20058;-45
2022/11/28 12:24:33;;;;;;;11.75;9.52;;;9.00;99.90;;;;;;4987029;28;20200;-42
2022/11/28 12:27:04;;;;;;;9.27;8.38;;;9.00;99.90;;;;;;4973490;28;20097;-44
2022/11/28 12:29:45;;;;;;;16.45;11.75;;;9.10;99.90;;;;;;4958076;28;20495;-41
2022/11/28 12:32:28;;;;;;;14.90;10.70;;;9.00;99.90;;;;;;4990884;28;20164;-44
2022/11/28 12:35:05;;;;;;;13.80;9.52;;;9.10;99.90;;;;;;4994226;28;20532;-42
2022/11/28 12:37:38;;;;;;;11.60;8.93;;;9.10;99.90;;;;;;5006408;28;20466;-44
2022/11/28 12:40:11;;;;;;;13.50;9.05;;;9.10;99.90;;;;;;4994973;28;20499;-43
2022/11/28 12:42:46;;;;;;;11.27;9.48;;;9.10;99.90;;;;;;4995108;28;20137;-43
2022/11/28 12:45:33;;;;;;;13.07;9.35;;;9.10;99.90;;;;;;4995074;28;20109;-45
2022/11/28 12:48:06;;;;;;;13.05;10.70;;;9.10;99.90;;;;;;4993218;28;20093;-44
2022/11/28 12:50:35;;;;;;;13.85;9.73;;;9.10;99.90;;;;;;5014594;28;20085;-44